Norfolk NAS, Virginia
Current Conditions -  °F | °C
As of 1:59 AM on Wednesday 22 Oct 2014 (Local Time) from KNGU Reporting Station
Broken Clouds Broken Clouds  
Wind Chill: 59°   Ceiling: 1500
Heat Index: 59°   Visibility: 10mi
Dew Point: 51°   Wind: 13mph
Humidity: 75%   Direction: 330°NNW
Pressure: 29.85"   Gusts: NA
Location:  36.93°N, 76.28°W
Report Text: KNGU 220559Z 33011KT 10SM BKN015 15/11 A2985 RMK AO2 SLP107 T01500106 10200 20150 58009 $
Loading
Personal Weather Stations






























Interactive Weather Map
Tropical Storm Tracking
New forecast layout! Learn more

10-Day Weather Forecast

Advertisements
Track Severe Weather on mobile